Time;durP1;ratioP1;P1;durP2;ratioP2;P2;SDS_P1;SDS_P2;PMS_P1;PMS_P2;Temp;Humidity;BMP_temperature;BMP_pressure;BME280_temperature;BME280_humidity;BME280_pressure;Samples;Min_cycle;Max_cycle;Signal;HPM_P1;HPM_P2
2022/01/13 00:00:28;;;;;;;;;;;1.30;94.30;;;;;;5024281;28;19994;-68
2022/01/13 00:02:54;;;;;;;;;;;1.20;94.10;;;;;;5023895;28;19917;-67
2022/01/13 00:05:26;;;;;;;;;;;1.30;94.30;;;;;;5023269;28;19913;-67
2022/01/13 00:07:55;;;;;;;;;;;1.30;94.00;;;;;;5023958;28;19911;-67
2022/01/13 00:10:21;;;;;;;;;;;1.20;94.10;;;;;;5023432;28;19909;-68
2022/01/13 00:12:47;;;;;;;;;;;1.30;94.10;;;;;;5024139;28;20263;-68
2022/01/13 00:15:26;;;;;;;;;;;1.40;93.90;;;;;;5023750;28;19920;-68
2022/01/13 00:23:38;;;;;;;;;;;1.50;93.60;;;;;;5024883;28;19910;-67
2022/01/13 00:25:34;;;;;;;;;;;1.40;93.50;;;;;;5003886;28;19925;-67
2022/01/13 00:28:04;;;;;;;;;;;1.40;93.50;;;;;;5004319;28;19972;-68
2022/01/13 00:30:31;;;;;;;;;;;1.40;93.40;;;;;;5022111;28;20148;-67
2022/01/13 00:32:57;;;;;;;;;;;1.30;93.60;;;;;;5024137;28;19963;-69
2022/01/13 00:35:22;;;;;;;;;;;1.20;94.10;;;;;;5023333;28;19913;-69
2022/01/13 00:37:48;;;;;;;;;;;1.10;94.00;;;;;;5023731;28;19914;-69
2022/01/13 00:40:14;;;;;;;;;;;0.90;94.30;;;;;;5014394;28;19940;-69
2022/01/13 00:42:40;;;;;;;;;;;0.80;94.60;;;;;;5008518;28;19917;-69
2022/01/13 00:45:06;;;;;;;;;;;0.70;94.80;;;;;;5017326;28;19917;-69
2022/01/13 00:47:35;;;;;;;;;;;0.70;94.90;;;;;;5023548;28;19948;-69
2022/01/13 00:50:01;;;;;;;;;;;0.50;95.10;;;;;;5023181;28;19946;-69
2022/01/13 00:52:26;;;;;;;;;;;0.50;95.30;;;;;;5023388;28;19916;-69
2022/01/13 00:54:52;;;;;;;;;;;0.50;95.30;;;;;;5023149;28;20228;-69
2022/01/13 00:57:18;;;;;;;;;;;0.50;95.40;;;;;;5023335;28;19909;-69
2022/01/13 00:59:44;;;;;;;;;;;0.50;95.40;;;;;;5023152;28;19909;-68
2022/01/13 01:02:09;;;;;;;;;;;0.50;95.30;;;;;;5023294;28;19917;-69
2022/01/13 01:04:35;;;;;;;;;;;0.60;95.20;;;;;;5022122;28;19909;-69
2022/01/13 01:07:01;;;;;;;;;;;0.70;95.10;;;;;;5023282;28;20197;-69
2022/01/13 01:09:38;;;;;;;;;;;0.70;95.00;;;;;;5023520;28;19917;-68
2022/01/13 01:12:06;;;;;;;;;;;0.70;95.00;;;;;;5022597;28;20147;-69
2022/01/13 01:14:35;;;;;;;;;;;0.70;95.10;;;;;;5022989;28;20089;-69
2022/01/13 01:17:01;;;;;;;;;;;0.70;95.30;;;;;;5023158;28;19909;-69
2022/01/13 01:19:28;;;;;;;;;;;0.70;95.40;;;;;;5022253;28;20223;-68
2022/01/13 01:27:47;;;;;;;;;;;0.80;95.40;;;;;;5001457;28;20197;-68
2022/01/13 01:30:38;;;;;;;;;;;0.80;95.40;;;;;;5000678;28;20212;-69
2022/01/13 01:33:06;;;;;;;;;;;0.80;95.50;;;;;;5003035;28;19914;-69
2022/01/13 01:35:32;;;;;;;;;;;0.80;95.50;;;;;;5003055;28;19922;-68
2022/01/13 01:37:58;;;;;;;;;;;0.70;95.60;;;;;;5003230;28;19917;-69
2022/01/13 01:40:24;;;;;;;;;;;0.80;95.80;;;;;;5003210;28;19917;-69
2022/01/13 01:42:49;;;;;;;;;;;0.80;95.70;;;;;;5003370;28;19910;-69
2022/01/13 01:45:15;;;;;;;;;;;0.80;95.80;;;;;;5017603;28;19982;-69
2022/01/13 01:47:43;;;;;;;;;;;0.80;95.70;;;;;;5037658;28;19976;-69
2022/01/13 01:50:17;;;;;;;;;;;0.80;95.50;;;;;;5023609;28;19913;-69
2022/01/13 01:52:46;;;;;;;;;;;0.80;95.50;;;;;;5014949;28;20204;-70
2022/01/13 01:55:12;;;;;;;;;;;0.80;95.50;;;;;;5011088;28;19920;-69
2022/01/13 01:57:38;;;;;;;;;;;0.80;95.40;;;;;;5003144;28;19910;-69
2022/01/13 02:00:06;;;;;;;;;;;0.80;95.40;;;;;;5015615;28;19967;-69
2022/01/13 02:02:32;;;;;;;;;;;0.80;95.40;;;;;;5025427;28;20081;-70
2022/01/13 02:04:58;;;;;;;;;;;0.80;95.30;;;;;;5021582;28;19910;-70
2022/01/13 02:07:24;;;;;;;;;;;0.80;95.20;;;;;;5025877;28;19910;-70
2022/01/13 02:09:52;;;;;;;;;;;0.70;95.20;;;;;;5026324;28;20224;-69
2022/01/13 02:15:15;;;;;;;;;;;0.80;95.20;;;;;;5024742;28;20148;-69
2022/01/13 02:17:41;;;;;;;;;;;0.80;95.10;;;;;;5026485;28;19932;-70
2022/01/13 02:20:09;;;;;;;;;;;0.80;95.10;;;;;;5026292;28;20242;-70
2022/01/13 02:22:35;;;;;;;;;;;0.80;95.40;;;;;;5025907;28;19909;-70
2022/01/13 02:25:00;;;;;;;;;;;0.80;95.40;;;;;;5025899;28;19932;-70
2022/01/13 02:27:26;;;;;;;;;;;0.80;95.40;;;;;;5025136;28;19909;-70
2022/01/13 02:29:52;;;;;;;;;;;0.80;95.50;;;;;;5025868;28;19933;-70
2022/01/13 02:32:18;;;;;;;;;;;0.90;95.30;;;;;;5025199;28;19928;-70
2022/01/13 02:34:43;;;;;;;;;;;0.90;95.30;;;;;;5025360;28;19940;-70
2022/01/13 02:37:09;;;;;;;;;;;0.90;95.30;;;;;;5025879;28;19916;-70
2022/01/13 02:39:35;;;;;;;;;;;1.00;95.00;;;;;;5025807;28;19972;-70
2022/01/13 02:42:02;;;;;;;;;;;1.00;94.80;;;;;;5024784;28;19913;-70
2022/01/13 02:44:29;;;;;;;;;;;1.00;94.70;;;;;;5025414;28;19909;-70
2022/01/13 02:47:08;;;;;;;;;;;1.00;94.80;;;;;;5024966;28;19913;-70
2022/01/13 02:49:34;;;;;;;;;;;1.00;95.00;;;;;;5025813;28;19916;-70
2022/01/13 02:52:00;;;;;;;;;;;1.00;94.80;;;;;;5024577;28;19917;-70
2022/01/13 02:54:25;;;;;;;;;;;1.00;94.80;;;;;;5025184;28;19952;-70
2022/01/13 02:56:52;;;;;;;;;;;1.00;94.60;;;;;;5024830;28;19910;-70
2022/01/13 02:59:18;;;;;;;;;;;1.00;94.60;;;;;;5025105;28;19920;-70
2022/01/13 03:01:44;;;;;;;;;;;1.10;94.60;;;;;;5025344;28;20201;-70
2022/01/13 03:04:10;;;;;;;;;;;1.00;94.60;;;;;;5024239;28;19936;-70
2022/01/13 03:06:38;;;;;;;;;;;1.00;94.70;;;;;;5025304;28;19909;-70
2022/01/13 03:09:05;;;;;;;;;;;0.80;94.90;;;;;;5024641;28;19913;-70
2022/01/13 03:11:34;;;;;;;;;;;0.90;94.90;;;;;;5023788;28;19910;-70
2022/01/13 03:14:00;;;;;;;;;;;0.90;94.80;;;;;;5024480;28;19914;-70
2022/01/13 03:16:26;;;;;;;;;;;0.90;95.00;;;;;;5024689;28;19909;-70
2022/01/13 03:18:51;;;;;;;;;;;0.90;95.10;;;;;;5024522;28;19910;-69
2022/01/13 03:21:17;;;;;;;;;;;0.90;95.10;;;;;;5024864;28;19948;-70
2022/01/13 03:23:43;;;;;;;;;;;0.80;95.10;;;;;;5023889;28;19909;-69
2022/01/13 03:26:09;;;;;;;;;;;0.90;95.30;;;;;;5024012;28;19916;-70
2022/01/13 03:28:51;;;;;;;;;;;0.80;95.40;;;;;;5024641;28;19909;-70
2022/01/13 03:31:26;;;;;;;;;;;0.80;95.60;;;;;;5024266;28;19921;-69
2022/01/13 03:33:53;;;;;;;;;;;0.80;95.60;;;;;;5024473;28;19917;-69
2022/01/13 03:36:18;;;;;;;;;;;0.80;95.50;;;;;;5022887;28;19909;-69
2022/01/13 03:38:44;;;;;;;;;;;0.80;95.50;;;;;;5024619;28;20239;-70
2022/01/13 03:41:10;;;;;;;;;;;0.80;95.50;;;;;;5023806;28;19921;-70
2022/01/13 03:43:37;;;;;;;;;;;0.80;95.50;;;;;;5023620;28;20029;-70
2022/01/13 03:46:05;;;;;;;;;;;0.80;95.60;;;;;;5024435;28;19913;-70
2022/01/13 03:48:31;;;;;;;;;;;0.80;95.60;;;;;;5023725;28;19928;-69
2022/01/13 03:50:57;;;;;;;;;;;0.90;95.60;;;;;;5024455;28;20181;-70
2022/01/13 03:53:28;;;;;;;;;;;0.80;95.70;;;;;;5023324;28;19910;-69
2022/01/13 03:56:31;;;;;;;;;;;0.80;95.80;;;;;;5024153;28;19910;-69
2022/01/13 03:59:35;;;;;;;;;;;0.80;95.90;;;;;;5024358;28;19916;-69
2022/01/13 04:02:01;;;;;;;;;;;0.90;95.80;;;;;;5005450;28;19917;-69
2022/01/13 04:04:28;;;;;;;;;;;0.90;95.90;;;;;;5023976;28;20248;-69
2022/01/13 04:07:05;;;;;;;;;;;0.90;95.70;;;;;;5023405;28;19910;-69
2022/01/13 04:09:34;;;;;;;;;;;0.80;95.90;;;;;;5024170;28;20108;-69
2022/01/13 04:12:07;;;;;;;;;;;0.80;96.00;;;;;;5023620;28;19909;-69
2022/01/13 04:14:58;;;;;;;;;;;0.80;95.90;;;;;;5023588;28;19913;-69
2022/01/13 04:17:21;;;;;;;;;;;0.90;95.80;;;;;;5023770;28;19909;-69
2022/01/13 04:19:47;;;;;;;;;;;0.90;95.90;;;;;;5023993;28;19909;-69
2022/01/13 04:22:13;;;;;;;;;;;0.90;95.90;;;;;;5023323;28;20144;-69
2022/01/13 04:24:42;;;;;;;;;;;0.90;95.90;;;;;;5022212;28;19909;-69
2022/01/13 04:27:09;;;;;;;;;;;1.00;95.90;;;;;;5023608;28;20212;-69
2022/01/13 04:29:37;;;;;;;;;;;1.00;95.70;;;;;;5023867;28;19936;-69
2022/01/13 04:32:04;;;;;;;;;;;1.00;95.90;;;;;;5022758;28;20173;-69
2022/01/13 04:34:30;;;;;;;;;;;1.00;95.80;;;;;;5023309;28;20264;-69
2022/01/13 04:36:57;;;;;;;;;;;0.90;95.90;;;;;;5023583;28;19917;-69
2022/01/13 04:39:24;;;;;;;;;;;0.90;95.90;;;;;;5022038;28;19910;-69
2022/01/13 04:41:50;;;;;;;;;;;0.90;95.90;;;;;;5022081;28;19922;-69
2022/01/13 04:44:17;;;;;;;;;;;0.90;95.90;;;;;;5023187;28;19949;-69
2022/01/13 04:46:43;;;;;;;;;;;1.00;95.70;;;;;;5023561;28;19910;-69
2022/01/13 04:49:09;;;;;;;;;;;1.10;95.70;;;;;;5023503;28;19913;-69
2022/01/13 04:51:36;;;;;;;;;;;1.00;95.60;;;;;;5022136;28;19980;-69
2022/01/13 04:54:01;;;;;;;;;;;1.00;95.70;;;;;;5023259;28;19913;-70
2022/01/13 04:56:38;;;;;;;;;;;1.00;95.90;;;;;;5022960;28;19963;-70
2022/01/13 04:59:04;;;;;;;;;;;1.00;95.70;;;;;;5023337;28;19909;-69
2022/01/13 05:01:30;;;;;;;;;;;1.10;95.60;;;;;;5022703;28;19980;-70
2022/01/13 05:03:56;;;;;;;;;;;1.00;95.50;;;;;;5022992;28;19983;-70
2022/01/13 05:06:21;;;;;;;;;;;1.00;95.70;;;;;;5022696;28;19936;-70
2022/01/13 05:08:47;;;;;;;;;;;1.00;95.70;;;;;;5023357;28;20200;-70
2022/01/13 05:11:13;;;;;;;;;;;1.00;95.60;;;;;;5023246;28;19910;-69
2022/01/13 05:13:39;;;;;;;;;;;1.00;95.60;;;;;;5023021;28;19952;-70
2022/01/13 05:16:05;;;;;;;;;;;1.10;95.50;;;;;;5022980;28;19972;-69
2022/01/13 05:21:37;;;;;;;;;;;1.00;95.70;;;;;;5022210;28;19952;-70
2022/01/13 05:24:02;;;;;;;;;;;1.10;95.70;;;;;;5023330;28;19917;-70
2022/01/13 05:26:28;;;;;;;;;;;1.00;95.60;;;;;;5022860;28;20250;-70
2022/01/13 05:28:54;;;;;;;;;;;1.10;95.50;;;;;;5023118;28;19946;-70
2022/01/13 05:31:19;;;;;;;;;;;1.10;95.30;;;;;;5021635;28;19955;-69
2022/01/13 05:33:45;;;;;;;;;;;1.10;95.00;;;;;;5022286;28;19921;-69
2022/01/13 05:36:12;;;;;;;;;;;1.20;95.00;;;;;;5026753;28;20218;-69
2022/01/13 05:38:42;;;;;;;;;;;1.10;95.10;;;;;;5027204;28;19909;-69
2022/01/13 05:41:07;;;;;;;;;;;1.00;95.30;;;;;;5026245;28;19948;-69
2022/01/13 05:43:33;;;;;;;;;;;0.90;95.40;;;;;;5026751;28;19910;-70
2022/01/13 05:45:59;;;;;;;;;;;0.90;95.70;;;;;;5026371;28;19917;-69
2022/01/13 05:48:25;;;;;;;;;;;1.00;95.40;;;;;;5026488;28;19909;-69
2022/01/13 05:50:50;;;;;;;;;;;1.10;95.30;;;;;;5025545;28;19909;-69
2022/01/13 05:53:16;;;;;;;;;;;1.20;95.20;;;;;;5016670;28;19913;-70
2022/01/13 05:55:42;;;;;;;;;;;1.30;95.00;;;;;;5015877;28;20013;-69
2022/01/13 05:58:07;;;;;;;;;;;1.30;94.90;;;;;;5009271;28;19921;-70
2022/01/13 06:00:33;;;;;;;;;;;1.30;94.80;;;;;;5006667;28;19909;-69
2022/01/13 06:02:59;;;;;;;;;;;1.30;94.80;;;;;;5006694;28;20124;-69
2022/01/13 06:05:25;;;;;;;;;;;1.30;94.80;;;;;;5006179;28;19957;-69
2022/01/13 06:07:52;;;;;;;;;;;1.30;94.80;;;;;;5014203;28;19948;-69
2022/01/13 06:10:21;;;;;;;;;;;1.30;94.70;;;;;;5026193;28;19909;-69
2022/01/13 06:12:51;;;;;;;;;;;1.20;94.90;;;;;;5025440;28;19916;-69
2022/01/13 06:15:18;;;;;;;;;;;1.30;94.90;;;;;;5024609;28;19914;-70
2022/01/13 06:17:44;;;;;;;;;;;1.40;94.80;;;;;;5026107;28;20108;-69
2022/01/13 06:20:12;;;;;;;;;;;1.40;94.70;;;;;;5026205;28;19960;-69
2022/01/13 06:22:38;;;;;;;;;;;1.30;94.80;;;;;;5024712;28;19916;-69
2022/01/13 06:25:05;;;;;;;;;;;1.30;94.80;;;;;;5025681;28;19910;-69
2022/01/13 06:27:31;;;;;;;;;;;1.40;94.80;;;;;;5025509;28;19910;-70
2022/01/13 06:29:57;;;;;;;;;;;1.30;94.90;;;;;;5026135;28;19915;-69
2022/01/13 06:32:23;;;;;;;;;;;1.30;94.90;;;;;;5023046;28;19914;-69
2022/01/13 06:34:49;;;;;;;;;;;1.30;94.90;;;;;;5022696;28;20212;-69
2022/01/13 06:37:15;;;;;;;;;;;1.40;95.00;;;;;;5023963;28;19979;-69
2022/01/13 06:39:41;;;;;;;;;;;1.30;95.10;;;;;;5025643;28;20205;-69
2022/01/13 06:42:07;;;;;;;;;;;1.30;95.10;;;;;;5025078;28;19920;-70
2022/01/13 06:44:32;;;;;;;;;;;1.30;95.20;;;;;;5024965;28;19909;-68
2022/01/13 06:46:58;;;;;;;;;;;1.30;95.30;;;;;;5025160;28;19913;-68
2022/01/13 06:49:24;;;;;;;;;;;1.30;95.50;;;;;;5025634;28;19918;-67
2022/01/13 06:51:49;;;;;;;;;;;1.30;95.50;;;;;;5025302;28;19952;-68
2022/01/13 06:54:15;;;;;;;;;;;1.30;95.50;;;;;;5024856;28;19913;-67
2022/01/13 06:56:41;;;;;;;;;;;1.30;95.60;;;;;;5025315;28;20231;-67
2022/01/13 06:59:11;;;;;;;;;;;1.30;95.40;;;;;;5021643;28;19913;-67
2022/01/13 07:01:40;;;;;;;;;;;1.30;95.50;;;;;;5005652;28;19960;-67
2022/01/13 07:04:08;;;;;;;;;;;1.20;95.60;;;;;;5017309;28;19909;-68
2022/01/13 07:06:34;;;;;;;;;;;1.20;95.70;;;;;;5025448;28;19920;-68
2022/01/13 07:09:00;;;;;;;;;;;1.20;95.80;;;;;;5024440;28;19909;-66
2022/01/13 07:11:25;;;;;;;;;;;1.20;95.80;;;;;;5022722;28;19918;-66
2022/01/13 07:13:51;;;;;;;;;;;1.20;95.80;;;;;;5024844;28;19928;-67
2022/01/13 07:16:18;;;;;;;;;;;1.20;95.60;;;;;;5024756;28;19928;-66
2022/01/13 07:18:43;;;;;;;;;;;1.20;95.60;;;;;;5024981;28;19910;-67
2022/01/13 07:21:11;;;;;;;;;;;1.20;95.80;;;;;;5023893;28;19916;-68
2022/01/13 07:23:37;;;;;;;;;;;1.20;95.80;;;;;;5024812;28;19948;-68
2022/01/13 07:26:03;;;;;;;;;;;1.30;95.80;;;;;;5024732;28;19922;-67
2022/01/13 07:28:29;;;;;;;;;;;1.30;95.60;;;;;;5025023;28;19910;-68
2022/01/13 07:30:56;;;;;;;;;;;1.20;95.60;;;;;;5023367;28;19989;-67
2022/01/13 07:33:22;;;;;;;;;;;1.20;95.70;;;;;;5024397;28;20003;-68
2022/01/13 07:35:47;;;;;;;;;;;1.20;95.50;;;;;;5023732;28;19909;-67
2022/01/13 07:38:13;;;;;;;;;;;1.20;95.60;;;;;;5024612;28;19910;-67
2022/01/13 07:40:39;;;;;;;;;;;1.20;95.70;;;;;;5023615;28;20219;-67
2022/01/13 07:43:04;;;;;;;;;;;1.30;95.60;;;;;;5024601;28;19981;-67
2022/01/13 07:45:30;;;;;;;;;;;1.30;95.70;;;;;;5024248;28;19910;-68
2022/01/13 07:47:56;;;;;;;;;;;1.30;95.70;;;;;;5023506;28;19909;-67
2022/01/13 07:50:22;;;;;;;;;;;1.30;95.80;;;;;;5024272;28;19918;-67
2022/01/13 07:52:47;;;;;;;;;;;1.30;95.70;;;;;;5023780;28;19952;-67
2022/01/13 07:55:13;;;;;;;;;;;1.30;95.70;;;;;;5022557;28;19960;-67
2022/01/13 07:57:39;;;;;;;;;;;1.40;95.70;;;;;;5022558;28;19910;-67
2022/01/13 08:00:06;;;;;;;;;;;1.40;95.60;;;;;;5023233;28;19917;-68
2022/01/13 08:02:31;;;;;;;;;;;1.40;95.50;;;;;;5024073;28;19916;-68
2022/01/13 08:04:57;;;;;;;;;;;1.40;95.40;;;;;;5023275;28;19909;-69
2022/01/13 08:07:23;;;;;;;;;;;1.40;95.40;;;;;;5024205;28;19913;-68
2022/01/13 08:09:48;;;;;;;;;;;1.40;95.40;;;;;;5024161;28;20228;-68
2022/01/13 08:12:14;;;;;;;;;;;1.50;95.50;;;;;;5022985;28;19956;-68
2022/01/13 08:14:40;;;;;;;;;;;1.60;95.40;;;;;;5023805;28;20281;-67
2022/01/13 08:17:07;;;;;;;;;;;1.60;95.40;;;;;;5023076;28;19917;-68
2022/01/13 08:19:45;;;;;;;;;;;1.50;95.10;;;;;;5023886;28;19909;-68
2022/01/13 08:22:15;;;;;;;;;;;1.50;95.10;;;;;;5023299;28;19917;-68
2022/01/13 08:24:41;;;;;;;;;;;1.50;95.10;;;;;;5022657;28;19972;-67
2022/01/13 08:27:07;;;;;;;;;;;1.50;95.10;;;;;;5022573;28;19909;-67
2022/01/13 08:29:32;;;;;;;;;;;1.50;95.20;;;;;;5023295;28;19914;-67
2022/01/13 08:31:58;;;;;;;;;;;1.50;95.30;;;;;;5023278;28;19920;-67
2022/01/13 08:34:24;;;;;;;;;;;1.50;95.30;;;;;;5022646;28;19913;-68
2022/01/13 08:36:50;;;;;;;;;;;1.50;95.30;;;;;;5023343;28;19909;-67
2022/01/13 08:39:15;;;;;;;;;;;1.50;95.20;;;;;;5023716;28;20161;-67
2022/01/13 08:41:43;;;;;;;;;;;1.50;95.20;;;;;;5022570;28;20112;-68
2022/01/13 08:44:09;;;;;;;;;;;1.60;95.10;;;;;;5022329;28;20204;-67
2022/01/13 08:46:35;;;;;;;;;;;1.60;95.10;;;;;;5022490;28;20200;-68
2022/01/13 08:49:02;;;;;;;;;;;1.60;95.20;;;;;;5023570;28;19909;-67
2022/01/13 08:51:27;;;;;;;;;;;1.70;95.40;;;;;;5022858;28;19917;-67
2022/01/13 08:53:53;;;;;;;;;;;1.70;94.80;;;;;;5023069;28;19913;-65
2022/01/13 08:56:19;;;;;;;;;;;1.80;94.70;;;;;;5022720;28;19910;-64
2022/01/13 08:58:46;;;;;;;;;;;1.90;94.40;;;;;;5023343;28;20247;-63
2022/01/13 09:01:12;;;;;;;;;;;1.90;94.30;;;;;;5022971;28;19944;-65
2022/01/13 09:03:38;;;;;;;;;;;1.80;94.60;;;;;;5022734;28;19909;-64
2022/01/13 09:06:04;;;;;;;;;;;1.90;94.20;;;;;;5022995;28;19984;-65
2022/01/13 09:08:30;;;;;;;;;;;1.80;94.10;;;;;;5022654;28;19910;-65
2022/01/13 09:10:56;;;;;;;;;;;1.80;94.40;;;;;;5023372;28;19947;-65
2022/01/13 09:13:21;;;;;;;;;;;1.80;94.40;;;;;;5023244;28;19910;-65
2022/01/13 09:16:14;;;;;;;;;;;1.80;94.30;;;;;;5022607;28;20208;-65
2022/01/13 09:19:19;;;;;;;;;;;1.80;94.50;;;;;;5023007;28;19917;-65
2022/01/13 09:21:19;;;;;;;;;;;1.80;94.40;;;;;;5019154;28;19910;-65
2022/01/13 09:23:45;;;;;;;;;;;1.90;94.40;;;;;;5023012;28;19948;-64
2022/01/13 09:26:11;;;;;;;;;;;2.00;94.30;;;;;;5022759;28;19914;-65
2022/01/13 09:28:36;;;;;;;;;;;2.00;94.00;;;;;;5018487;28;19949;-65
2022/01/13 09:31:03;;;;;;;;;;;2.00;94.00;;;;;;5017057;28;19928;-70
2022/01/13 09:33:29;;;;;;;;;;;2.00;94.00;;;;;;5017163;28;19972;-71
2022/01/13 09:35:54;;;;;;;;;;;2.00;94.00;;;;;;5009254;28;19924;-71
2022/01/13 09:38:20;;;;;;;;;;;2.10;94.10;;;;;;5003374;28;19921;-70
2022/01/13 09:40:46;;;;;;;;;;;2.10;94.10;;;;;;5004406;28;20171;-67
2022/01/13 09:43:12;;;;;;;;;;;2.20;93.70;;;;;;5019050;28;19916;-67
2022/01/13 09:45:39;;;;;;;;;;;2.30;93.40;;;;;;5013692;28;19922;-68
2022/01/13 09:48:04;;;;;;;;;;;2.30;93.00;;;;;;5014160;28;20227;-69
2022/01/13 09:50:30;;;;;;;;;;;2.30;92.90;;;;;;5012055;28;19914;-70
2022/01/13 09:52:56;;;;;;;;;;;2.30;93.00;;;;;;5015537;28;19920;-70
2022/01/13 09:55:21;;;;;;;;;;;2.20;93.20;;;;;;5017309;28;19933;-70
2022/01/13 09:57:49;;;;;;;;;;;2.10;93.30;;;;;;5018376;28;19914;-71
2022/01/13 10:00:21;;;;;;;;;;;2.10;93.50;;;;;;5016708;28;19973;-67
2022/01/13 10:02:47;;;;;;;;;;;2.00;93.70;;;;;;5010235;28;19914;-67
2022/01/13 10:05:16;;;;;;;;;;;2.10;93.50;;;;;;5018139;28;19921;-68
2022/01/13 10:07:43;;;;;;;;;;;2.10;93.30;;;;;;5004907;28;19956;-67
2022/01/13 10:10:14;;;;;;;;;;;2.20;93.40;;;;;;5021795;28;19917;-67
2022/01/13 10:12:42;;;;;;;;;;;2.20;93.30;;;;;;5020744;28;19909;-67
2022/01/13 10:18:02;;;;;;;;;;;2.40;92.80;;;;;;5022111;28;20116;-68
2022/01/13 10:20:28;;;;;;;;;;;2.40;92.70;;;;;;5022532;28;19909;-68
2022/01/13 10:22:53;;;;;;;;;;;2.60;92.30;;;;;;5024310;28;19916;-68
2022/01/13 10:25:38;;;;;;;;;;;2.60;92.10;;;;;;5024505;28;19914;-68
2022/01/13 10:28:18;;;;;;;;;;;2.50;92.50;;;;;;5025463;28;19915;-68
2022/01/13 10:30:51;;;;;;;;;;;2.60;92.60;;;;;;5025614;28;19914;-68
2022/01/13 10:33:25;;;;;;;;;;;2.60;92.10;;;;;;5020029;28;19988;-67
2022/01/13 10:35:52;;;;;;;;;;;2.50;92.50;;;;;;5025449;28;19914;-68
2022/01/13 10:38:19;;;;;;;;;;;2.60;92.30;;;;;;5041229;28;19936;-68
2022/01/13 10:40:49;;;;;;;;;;;2.60;92.00;;;;;;5041265;28;19909;-68
2022/01/13 10:43:16;;;;;;;;;;;2.50;91.90;;;;;;5017415;28;19977;-68
2022/01/13 10:45:47;;;;;;;;;;;2.60;92.00;;;;;;5005738;28;19910;-68
2022/01/13 10:48:16;;;;;;;;;;;2.60;91.60;;;;;;5010012;28;19909;-67
2022/01/13 10:51:04;;;;;;;;;;;2.50;91.80;;;;;;5026106;28;20128;-68
2022/01/13 10:53:34;;;;;;;;;;;2.60;91.90;;;;;;5023915;28;20204;-67
2022/01/13 10:56:10;;;;;;;;;;;2.60;91.90;;;;;;5025461;28;19913;-65
2022/01/13 10:58:38;;;;;;;;;;;2.60;91.90;;;;;;5023694;28;19917;-66
2022/01/13 11:01:04;;;;;;;;;;;2.60;92.00;;;;;;5025333;28;19909;-67
2022/01/13 11:03:31;;;;;;;;;;;2.60;92.00;;;;;;5020524;28;19936;-66
2022/01/13 11:06:04;;;;;;;;;;;2.70;91.90;;;;;;5014846;28;20255;-66
2022/01/13 11:08:32;;;;;;;;;;;2.80;91.40;;;;;;5023451;28;19939;-66
2022/01/13 11:11:01;;;;;;;;;;;2.80;91.40;;;;;;5015621;28;20781;-66
2022/01/13 11:13:31;;;;;;;;;;;2.80;91.30;;;;;;5020975;28;19940;-65
2022/01/13 11:15:57;;;;;;;;;;;2.90;91.10;;;;;;5025204;28;19980;-65
2022/01/13 11:18:33;;;;;;;;;;;2.90;91.20;;;;;;5024248;28;20212;-65
2022/01/13 11:20:59;;;;;;;;;;;3.00;91.30;;;;;;5025099;28;19909;-66
2022/01/13 11:23:24;;;;;;;;;;;3.00;91.30;;;;;;5024820;28;19909;-66
2022/01/13 11:25:55;;;;;;;;;;;3.20;90.90;;;;;;5024759;28;19977;-66
2022/01/13 11:28:23;;;;;;;;;;;3.40;90.70;;;;;;5024600;28;19956;-66
2022/01/13 11:30:52;;;;;;;;;;;3.60;90.40;;;;;;5024295;28;19920;-66
2022/01/13 11:33:18;;;;;;;;;;;3.90;89.20;;;;;;5024028;28;19910;-66
2022/01/13 11:35:52;;;;;;;;;;;4.10;87.50;;;;;;5019459;28;19913;-66
2022/01/13 11:38:18;;;;;;;;;;;4.60;86.40;;;;;;5004261;28;19909;-66
2022/01/13 11:40:45;;;;;;;;;;;4.80;84.40;;;;;;4987589;28;20009;-74
2022/01/13 11:43:29;;;;;;;;;;;5.00;83.20;;;;;;5004068;28;19952;-73
2022/01/13 11:45:55;;;;;;;;;;;5.40;82.00;;;;;;5003794;28;20094;-71
2022/01/13 11:48:25;;;;;;;;;;;5.60;80.20;;;;;;5005759;28;19996;-71
2022/01/13 11:50:54;;;;;;;;;;;5.90;79.30;;;;;;5039217;28;19913;-71
2022/01/13 11:53:31;;;;;;;;;;;6.30;77.00;;;;;;5020637;28;19968;-72
2022/01/13 11:56:07;;;;;;;;;;;6.60;72.90;;;;;;5022919;28;19936;-73
2022/01/13 11:58:41;;;;;;;;;;;6.60;73.30;;;;;;5023165;28;19910;-71
2022/01/13 12:01:29;;;;;;;;;;;6.10;74.00;;;;;;5024351;28;19910;-70
2022/01/13 12:03:56;;;;;;;;;;;5.90;75.40;;;;;;5022568;28;19952;-71
2022/01/13 12:06:42;;;;;;;;;;;6.20;74.90;;;;;;5019766;28;19937;-71
2022/01/13 12:09:09;;;;;;;;;;;6.20;73.70;;;;;;5022869;28;19913;-71
2022/01/13 12:11:39;;;;;;;;;;;6.00;74.50;;;;;;5023219;28;19917;-70
2022/01/13 12:14:23;;;;;;;;;;;5.60;76.80;;;;;;5024223;28;20124;-71
2022/01/13 12:17:13;;;;;;;;;;;5.50;78.20;;;;;;5024157;28;20165;-71
2022/01/13 12:19:43;;;;;;;;;;;5.60;77.20;;;;;;5023568;28;20218;-72
2022/01/13 12:22:37;;;;;;;;;;;5.30;78.60;;;;;;5023976;28;19909;-75
2022/01/13 12:25:04;;;;;;;;;;;5.20;79.90;;;;;;5021588;28;19910;-71
2022/01/13 12:27:40;;;;;;;;;;;5.00;80.10;;;;;;5022932;28;19976;-72
2022/01/13 12:30:12;;;;;;;;;;;4.80;81.40;;;;;;5024124;28;19909;-72
2022/01/13 12:32:53;;;;;;;;;;;4.90;82.10;;;;;;5023823;28;19913;-70
2022/01/13 12:35:21;;;;;;;;;;;5.20;81.40;;;;;;5007945;28;19921;-72
2022/01/13 12:38:06;;;;;;;;;;;5.50;78.80;;;;;;5019701;28;20044;-72
2022/01/13 12:40:39;;;;;;;;;;;5.50;79.20;;;;;;5004012;28;19909;-72
2022/01/13 12:43:35;;;;;;;;;;;5.80;78.60;;;;;;5003786;28;19977;-72
2022/01/13 12:46:09;;;;;;;;;;;5.90;78.20;;;;;;4988860;28;19917;-72
2022/01/13 12:48:35;;;;;;;;;;;6.20;75.20;;;;;;5003448;28;19910;-71
2022/01/13 12:51:01;;;;;;;;;;;5.60;77.60;;;;;;5001557;28;19921;-72
2022/01/13 12:53:30;;;;;;;;;;;5.40;79.80;;;;;;5022051;28;19916;-70
2022/01/13 12:56:03;;;;;;;;;;;5.30;78.80;;;;;;5021199;28;20112;-71
2022/01/13 12:58:35;;;;;;;;;;;5.20;80.10;;;;;;5023406;28;19991;-71
2022/01/13 13:01:03;;;;;;;;;;;5.10;80.70;;;;;;5022923;28;19967;-71
2022/01/13 13:03:29;;;;;;;;;;;5.10;81.00;;;;;;5021728;28;19909;-72
2022/01/13 13:05:56;;;;;;;;;;;5.00;80.90;;;;;;5021672;28;20171;-71
2022/01/13 13:08:23;;;;;;;;;;;4.90;81.50;;;;;;5019662;28;19916;-71
2022/01/13 13:10:54;;;;;;;;;;;4.80;82.50;;;;;;5023057;28;19917;-71
2022/01/13 13:13:20;;;;;;;;;;;4.80;83.00;;;;;;5037711;28;20247;-71
2022/01/13 13:15:50;;;;;;;;;;;4.90;83.40;;;;;;5016769;28;19918;-72
2022/01/13 13:18:20;;;;;;;;;;;5.10;82.40;;;;;;5035362;28;19910;-70
2022/01/13 13:20:48;;;;;;;;;;;5.20;81.40;;;;;;5022125;28;19909;-72
2022/01/13 13:23:14;;;;;;;;;;;5.30;81.30;;;;;;5023199;28;20223;-72
2022/01/13 13:25:45;;;;;;;;;;;5.50;79.40;;;;;;5020668;28;19910;-71
2022/01/13 13:28:20;;;;;;;;;;;5.60;78.70;;;;;;5021822;28;20102;-71
2022/01/13 13:30:50;;;;;;;;;;;5.80;77.50;;;;;;5023213;28;19913;-71
2022/01/13 13:33:17;;;;;;;;;;;5.70;78.20;;;;;;5021986;28;19909;-72
2022/01/13 13:35:44;;;;;;;;;;;5.80;77.50;;;;;;5020949;28;20422;-71
2022/01/13 13:38:11;;;;;;;;;;;5.90;76.50;;;;;;5016397;28;19922;-72
2022/01/13 13:40:44;;;;;;;;;;;6.00;76.60;;;;;;5017278;28;19909;-72
2022/01/13 13:43:10;;;;;;;;;;;6.40;75.00;;;;;;5023216;28;19910;-72
2022/01/13 13:45:35;;;;;;;;;;;6.40;75.10;;;;;;5022705;28;19988;-70
2022/01/13 13:48:01;;;;;;;;;;;6.60;73.80;;;;;;5023047;28;19941;-74
2022/01/13 13:50:27;;;;;;;;;;;6.40;74.30;;;;;;5022402;28;19909;-75
2022/01/13 13:53:11;;;;;;;;;;;6.40;75.10;;;;;;5004994;28;19910;-74
2022/01/13 13:55:37;;;;;;;;;;;6.30;75.70;;;;;;5006416;28;19976;-75
2022/01/13 13:58:03;;;;;;;;;;;6.40;75.80;;;;;;5009311;28;20132;-71
2022/01/13 14:00:29;;;;;;;;;;;6.20;76.10;;;;;;5026425;28;20117;-71
2022/01/13 14:02:56;;;;;;;;;;;6.10;77.00;;;;;;5025150;28;19916;-71
2022/01/13 14:05:26;;;;;;;;;;;5.90;78.10;;;;;;5026308;28;19932;-71
2022/01/13 14:07:52;;;;;;;;;;;5.80;79.10;;;;;;5025413;28;19956;-71
2022/01/13 14:10:21;;;;;;;;;;;5.70;78.90;;;;;;5022611;28;19913;-71
2022/01/13 14:12:55;;;;;;;;;;;5.70;79.40;;;;;;5025366;28;20243;-71
2022/01/13 14:15:37;;;;;;;;;;;5.70;79.40;;;;;;5041353;28;20205;-70
2022/01/13 14:18:14;;;;;;;;;;;5.50;80.10;;;;;;5026405;28;19916;-70
2022/01/13 14:20:49;;;;;;;;;;;5.30;81.20;;;;;;5026431;28;19964;-71
2022/01/13 14:23:25;;;;;;;;;;;5.30;81.90;;;;;;5025607;28;19909;-71
2022/01/13 14:26:02;;;;;;;;;;;5.10;82.90;;;;;;5025689;28;19909;-71
2022/01/13 14:28:30;;;;;;;;;;;4.90;83.60;;;;;;5026086;28;19909;-71
2022/01/13 14:31:09;;;;;;;;;;;4.90;84.00;;;;;;5041140;28;19920;-71
2022/01/13 14:33:41;;;;;;;;;;;4.90;84.20;;;;;;5025990;28;19909;-70
2022/01/13 14:36:11;;;;;;;;;;;4.80;84.10;;;;;;5024529;28;19909;-70
2022/01/13 14:38:38;;;;;;;;;;;4.90;84.50;;;;;;5023646;28;19980;-71
2022/01/13 14:41:03;;;;;;;;;;;4.80;84.80;;;;;;5020992;28;19917;-70
2022/01/13 14:43:29;;;;;;;;;;;4.70;85.20;;;;;;5025661;28;19910;-71
2022/01/13 14:46:22;;;;;;;;;;;4.60;85.80;;;;;;5025382;28;19916;-70
2022/01/13 14:48:47;;;;;;;;;;;4.60;86.30;;;;;;5006423;28;19985;-71
2022/01/13 14:51:15;;;;;;;;;;;4.50;86.80;;;;;;5023486;28;19917;-71
2022/01/13 14:53:40;;;;;;;;;;;4.40;87.10;;;;;;5007425;28;20009;-71
2022/01/13 14:56:07;;;;;;;;;;;4.30;87.40;;;;;;5024387;28;19917;-70
2022/01/13 14:58:33;;;;;;;;;;;4.20;87.80;;;;;;5007772;28;20012;-70